This is the latest recevied weather packets stored in our database for station/object N7WSS. If no packets are shown the sender has not sent any weather packets the latest 10 day(s).
| Time | Temp. | Humidity | Pressure | Rain* | Wind** | Luminosity | Snow |
|---|---|---|---|---|---|---|---|
| 1777943288 | 18.89° C | 45% | 1011.4 hPa | 0 mm | - | - | - |
| 1777942984 | 18.89° C | 46% | 1011.4 hPa | 0 mm | - | - | - |
| 1777942681 | 19.44° C | 44% | 1011.4 hPa | 0 mm | - | - | - |
| 1777942378 | 19.44° C | 45% | 1011.3 hPa | 0 mm | - | - | - |
| 1777942075 | 19.44° C | 43% | 1011.4 hPa | 0 mm | - | - | - |
| 1777941771 | 20° C | 40% | 1011.8 hPa | 0 mm | - | - | - |
| 1777941469 | 20° C | 40% | 1011.7 hPa | 0 mm | - | - | - |
| 1777941166 | 20° C | 39% | 1011.6 hPa | 0 mm | - | - | - |
| 1777940862 | 20° C | 40% | 1011.7 hPa | 0 mm | - | - | - |
| 1777940560 | 20° C | 41% | 1011.6 hPa | 0 mm | - | - | - |
| 1777940257 | 20.56° C | 40% | 1011.7 hPa | 0 mm | - | - | - |
| 1777939955 | 21.67° C | 36% | 1011.6 hPa | 0 mm | - | - | - |
| 1777939651 | 21.67° C | 33% | 1011.5 hPa | 0 mm | - | - | - |
| 1777939349 | 21.67° C | 32% | 1011.5 hPa | 0 mm | - | - | - |
| 1777939045 | 22.22° C | 32% | 1011.6 hPa | 0 mm | - | - | - |
| 1777938741 | 22.78° C | 31% | 1011.2 hPa | 0 mm | - | - | - |
| 1777938439 | 22.78° C | 30% | 1011.1 hPa | 0 mm | - | - | - |
| 1777938136 | 23.33° C | 29% | 1011.1 hPa | 0 mm | - | - | - |
| 1777937832 | 23.33° C | 28% | 1010.9 hPa | 0 mm | - | - | - |
| 1777937528 | 23.33° C | 27% | 1011.1 hPa | 0 mm | - | - | - |
| 1777937226 | 23.89° C | 26% | 1011.3 hPa | 0 mm | - | - | - |
| 1777936923 | 23.89° C | 26% | 1011.2 hPa | 0 mm | - | - | - |
| 1777936619 | 23.89° C | 27% | 1011.3 hPa | 0 mm | - | - | - |
| 1777936315 | 23.89° C | 26% | 1011.2 hPa | 0 mm | - | - | - |
| 1777936012 | 24.44° C | 26% | 1011.1 hPa | 0 mm | - | - | - |
* Rain latest hour (hover to see other rain measurements)
** Current wind speed in m/s (hover to see current wind gust speed)